Allen Jay, North Carolina
Current Conditions -  °F | °C
As of 3:54 AM on Sunday 26 Oct 2014 (Local Time) from KGSO Reporting Station
Clear Clear  
Wind Chill: 61°   Ceiling: Unl
Heat Index: 61°   Visibility: 10mi
Dew Point: 49°   Wind: 15mph
Humidity: 64%   Direction: 300°WNW
Pressure: 29.86"   Gusts: 22mph
Location:  35.9136°N, 79.9465°W
Report Text: KGSO 260754Z 30013G19KT 10SM CLR 16/09 A2986 RMK AO2 SLP103 T01610094
Loading
Personal Weather Stations






























Interactive Weather Map
Tropical Storm Tracking
New forecast layout! Learn more

10-Day Weather Forecast

Advertisements
Track Severe Weather on mobile